Terminal Aerodrome Forecast
Issued by NWS

Home | Current Version | Previous Version | Text Only | Print | Product List | Glossary On
Versions: 1 2 3 4 5 6 7 8 9 10 11 12 13 14 15 16 17 18 19 20 21 22 23 24 25 26 27 28 29 30 31 32 33 34
000
FTUS42 KJAX 181600 AAA
TAFSGJ
TAF AMD
KSGJ 181600Z 1816/1912 21006KT P6SM VCTS BKN015CB BKN045
      TEMPO 1816/1819 VRB12G22KT 3SM TSRA BKN015CB OVC040
     FM181900 17008KT P6SM VCTS BKN035CB
     FM182300 23006KT P6SM SCT025 BKN150 BKN250=

USA.gov is the U.S. government's official web portal to all federal, state and local government web resources and services.